createdAt,value
2023-05-25T04:50:55.828Z,6.43
2023-05-25T04:55:59.538Z,11.63
2023-05-25T05:01:02.433Z,11.10
2023-05-25T05:06:05.479Z,10.23
2023-05-25T05:11:08.264Z,7.87
2023-05-25T05:16:11.163Z,10.23
2023-05-25T05:21:14.032Z,5.97
2023-05-25T05:26:16.987Z,5.77
2023-05-25T05:31:20.034Z,8.47
2023-05-25T05:36:23.166Z,6.70
2023-05-25T05:41:26.045Z,7.07
2023-05-25T05:46:28.878Z,8.57
2023-05-25T05:51:32.097Z,7.30
2023-05-25T05:56:34.961Z,6.27
2023-05-25T06:01:38.093Z,8.17
2023-05-25T06:06:42.360Z,7.13
2023-05-25T06:11:45.162Z,10.67
2023-05-25T06:16:48.070Z,10.87
2023-05-25T06:21:51.196Z,11.80
2023-05-25T06:26:54.059Z,12.87
2023-05-25T06:31:57.043Z,17.87
2023-05-25T06:37:00.147Z,10.37
2023-05-25T06:42:02.986Z,10.07
2023-05-25T06:47:06.214Z,9.57
2023-05-25T06:52:09.045Z,10.43
2023-05-25T06:57:11.860Z,9.73
2023-05-25T07:02:14.710Z,13.13
2023-05-25T07:07:17.515Z,11.03
2023-05-25T07:12:21.589Z,9.93
2023-05-25T07:17:24.460Z,11.30
2023-05-25T07:22:27.373Z,16.50
2023-05-25T07:27:31.608Z,11.37
2023-05-25T07:32:34.600Z,13.10
2023-05-25T07:37:37.610Z,11.10
2023-05-25T07:42:40.721Z,12.33
2023-05-25T07:47:43.620Z,9.73
2023-05-25T07:52:46.789Z,12.97
2023-05-25T07:57:49.604Z,10.57
2023-05-25T08:02:52.793Z,10.93
2023-05-25T08:07:55.850Z,15.87
2023-05-25T08:12:59.221Z,16.80
2023-05-25T08:18:04.510Z,16.73
2023-05-25T08:23:08.329Z,14.33
2023-05-25T08:28:11.764Z,13.47
2023-05-25T08:33:14.807Z,11.67
2023-05-25T08:38:17.649Z,13.33
2023-05-25T08:43:20.522Z,11.63
2023-05-25T08:48:39.387Z,15.33
2023-05-25T08:53:44.495Z,10.53
2023-05-25T08:59:04.796Z,14.03
2023-05-25T09:04:09.734Z,13.07
2023-05-25T09:09:13.239Z,9.50
2023-05-25T09:14:16.214Z,15.20
2023-05-25T09:19:19.052Z,14.57
2023-05-25T09:24:22.487Z,16.17
2023-05-25T09:29:26.167Z,15.40
2023-05-25T09:34:34.895Z,14.70
2023-05-25T09:39:37.856Z,20.10
2023-05-25T09:44:42.789Z,19.93
2023-05-25T09:49:47.820Z,17.73
2023-05-25T09:54:51.853Z,24.13
2023-05-25T09:59:54.822Z,18.57
2023-05-25T10:04:57.701Z,15.63
2023-05-25T10:10:05.295Z,17.90
2023-05-25T10:15:09.735Z,15.70
2023-05-25T10:20:13.266Z,18.93
2023-05-25T10:25:34.871Z,20.47
2023-05-25T10:30:37.956Z,14.30
2023-05-25T10:35:56.156Z,18.03
2023-05-25T10:41:05.201Z,16.37
2023-05-25T10:46:08.939Z,18.90
2023-05-25T10:51:12.163Z,23.23
2023-05-25T10:56:15.461Z,19.23
2023-05-25T11:01:18.416Z,20.27
2023-05-25T11:06:44.671Z,15.87
2023-05-25T11:11:47.533Z,15.27
2023-05-25T11:17:13.863Z,15.27
2023-05-25T11:22:20.658Z,13.47
2023-05-25T11:27:24.586Z,15.17
2023-05-25T11:32:28.371Z,14.10
2023-05-25T11:37:33.637Z,18.77
2023-05-25T11:42:36.500Z,13.57
2023-05-25T11:47:39.363Z,13.00
2023-05-25T11:52:42.342Z,15.37
2023-05-25T11:57:45.522Z,8.63
2023-05-25T12:02:49.281Z,12.50
2023-05-25T12:07:52.270Z,12.67
2023-05-25T12:12:58.413Z,13.30
2023-05-25T12:18:01.432Z,12.43
2023-05-25T12:23:04.374Z,10.10
2023-05-25T12:28:12.132Z,10.00
2023-05-25T12:33:15.675Z,8.00
2023-05-25T12:38:20.103Z,10.20
2023-05-25T12:43:22.934Z,18.53
2023-05-25T12:48:28.952Z,11.70
2023-05-25T12:53:31.789Z,11.10
2023-05-25T12:58:34.662Z,9.97
2023-05-25T13:03:37.523Z,21.17
2023-05-25T13:08:40.376Z,7.53
2023-05-25T13:13:43.220Z,9.60
2023-05-25T13:18:46.105Z,10.67
2023-05-25T13:23:48.961Z,7.90
2023-05-25T13:28:51.776Z,10.03
2023-05-25T13:33:54.615Z,13.27
2023-05-25T13:38:59.166Z,8.10
2023-05-25T13:44:02.577Z,8.80
2023-05-25T13:49:05.754Z,10.67
2023-05-25T13:54:08.625Z,8.47
2023-05-25T13:59:11.532Z,12.83
2023-05-25T14:04:16.094Z,15.87
2023-05-25T14:09:19.487Z,12.53
2023-05-25T14:14:31.389Z,10.00
2023-05-25T14:19:35.450Z,13.10
2023-05-25T14:24:38.360Z,12.30
2023-05-25T14:29:41.204Z,11.17
2023-05-25T14:34:44.718Z,14.60
2023-05-25T14:39:47.637Z,13.13
2023-05-25T14:44:50.565Z,12.87
2023-05-25T14:49:53.984Z,14.07
2023-05-25T14:54:57.479Z,14.23
2023-05-25T15:00:00.658Z,16.53
2023-05-25T15:05:03.581Z,16.60
2023-05-25T15:10:07.202Z,15.87
2023-05-25T15:15:11.320Z,15.07
2023-05-25T15:20:14.397Z,13.23
2023-05-25T15:25:24.483Z,11.57
2023-05-25T15:30:34.622Z,13.00
2023-05-25T15:35:37.718Z,15.60
2023-05-25T15:40:40.696Z,10.87
2023-05-25T15:45:43.840Z,11.60
2023-05-25T15:50:46.983Z,12.20
2023-05-25T15:55:49.835Z,10.33
2023-05-25T16:00:52.826Z,12.60
2023-05-25T16:05:56.555Z,13.93
2023-05-25T16:10:59.438Z,13.67
2023-05-25T16:16:02.576Z,11.97
2023-05-25T16:21:05.823Z,10.93
2023-05-25T16:26:10.201Z,11.10
2023-05-25T16:31:13.573Z,10.13
2023-05-25T16:36:17.129Z,9.27
2023-05-25T16:41:20.290Z,10.40
2023-05-25T16:46:25.175Z,12.27
2023-05-25T16:51:28.065Z,11.97
2023-05-25T16:56:35.565Z,11.67
2023-05-25T17:01:38.960Z,9.63
2023-05-25T17:06:44.567Z,13.17
2023-05-25T17:12:03.709Z,12.63
2023-05-25T17:17:10.097Z,13.03
2023-05-25T17:22:13.419Z,11.20
2023-05-25T17:27:17.333Z,15.27
2023-05-25T17:32:20.942Z,13.67
2023-05-25T17:37:24.098Z,11.80
2023-05-25T17:42:27.305Z,13.80
2023-05-25T17:47:30.638Z,11.07
2023-05-25T17:52:40.373Z,14.33
2023-05-25T17:57:44.177Z,12.33
2023-05-25T18:02:51.913Z,12.23
2023-05-25T18:07:57.472Z,12.27
2023-05-25T18:13:03.355Z,14.17
2023-05-25T18:18:20.507Z,11.03
2023-05-25T18:23:34.632Z,17.50
2023-05-25T18:28:37.441Z,10.27
2023-05-25T18:33:41.284Z,15.70
2023-05-25T18:38:44.126Z,12.87
2023-05-25T18:43:50.008Z,11.07
2023-05-25T18:48:53.065Z,12.23
2023-05-25T18:53:58.598Z,13.87
2023-05-25T18:59:01.888Z,12.77
2023-05-25T19:04:05.255Z,11.57
2023-05-25T19:09:08.646Z,12.17
2023-05-25T19:14:12.409Z,12.57
2023-05-25T19:19:15.535Z,10.47
2023-05-25T19:24:18.704Z,13.23
2023-05-25T19:29:23.317Z,11.73
2023-05-25T19:34:26.871Z,12.90
2023-05-25T19:39:31.725Z,11.40
2023-05-25T19:44:34.954Z,15.47
2023-05-25T19:49:38.699Z,14.00
2023-05-25T19:54:41.948Z,15.53
2023-05-25T19:59:45.442Z,12.10
2023-05-25T20:04:48.871Z,17.03
2023-05-25T20:09:52.048Z,13.77
2023-05-25T20:14:56.208Z,13.47
2023-05-25T20:20:00.791Z,13.80
2023-05-25T20:25:04.975Z,12.17
2023-05-25T20:30:09.241Z,16.70
2023-05-25T20:35:13.407Z,15.67
2023-05-25T20:40:17.033Z,14.70
2023-05-25T20:45:19.848Z,15.23
2023-05-25T20:50:22.685Z,18.33
2023-05-25T20:55:26.374Z,17.03
2023-05-25T21:00:29.585Z,13.87
2023-05-25T21:05:33.963Z,17.77
2023-05-25T21:10:37.247Z,15.33
2023-05-25T21:15:40.093Z,18.17
2023-05-25T21:20:43.006Z,15.67
2023-05-25T21:25:46.754Z,14.70
2023-05-25T21:30:49.868Z,15.67
2023-05-25T21:35:52.908Z,14.17
2023-05-25T21:40:55.785Z,14.43
2023-05-25T21:45:58.644Z,17.83
2023-05-25T21:51:01.452Z,17.70
2023-05-25T21:56:04.372Z,16.23
2023-05-25T22:01:07.246Z,16.83
2023-05-25T22:06:10.129Z,16.67
2023-05-25T22:11:12.988Z,15.63
2023-05-25T22:16:15.896Z,15.27
2023-05-25T22:21:18.761Z,16.27
2023-05-25T22:26:22.859Z,15.07
2023-05-25T22:31:26.954Z,17.37
2023-05-25T22:36:29.918Z,18.80
2023-05-25T22:41:32.707Z,18.00
2023-05-25T22:46:35.902Z,20.70
2023-05-25T22:51:38.769Z,15.37
2023-05-25T22:56:41.640Z,19.77
2023-05-25T23:01:44.478Z,19.80
2023-05-25T23:06:47.339Z,14.03
2023-05-25T23:11:50.234Z,16.77
2023-05-25T23:16:53.137Z,18.63
2023-05-25T23:21:58.633Z,17.87
2023-05-25T23:27:02.074Z,17.07
2023-05-25T23:32:05.272Z,17.63
2023-05-25T23:37:08.136Z,19.17
2023-05-25T23:42:15.237Z,19.03
